sensor_id;sensor_type;location;lat;lon;timestamp;pressure;altitude;pressure_sealevel;temperature;humidity
75998;BME280;64685;48.762;44.822;2023-06-14T00:04:02;100223.06;;;22.36;40.95
75998;BME280;64685;48.762;44.822;2023-06-14T00:09:05;100223.09;;;22.25;41.39
75998;BME280;64685;48.762;44.822;2023-06-14T00:14:07;100216.66;;;22.11;41.54
75998;BME280;64685;48.762;44.822;2023-06-14T00:19:10;100233.78;;;22.00;41.91
75998;BME280;64685;48.762;44.822;2023-06-14T00:24:13;100224.06;;;21.91;42.14
75998;BME280;64685;48.762;44.822;2023-06-14T00:29:16;100219.59;;;21.83;42.45
75998;BME280;64685;48.762;44.822;2023-06-14T00:34:19;100219.66;;;21.69;42.69
75998;BME280;64685;48.762;44.822;2023-06-14T00:39:21;100237.94;;;21.71;43.14
75998;BME280;64685;48.762;44.822;2023-06-14T00:44:24;100243.19;;;21.69;43.40
75998;BME280;64685;48.762;44.822;2023-06-14T00:49:28;100243.59;;;21.61;43.63
75998;BME280;64685;48.762;44.822;2023-06-14T00:54:31;100239.53;;;21.58;43.88
75998;BME280;64685;48.762;44.822;2023-06-14T00:59:38;100249.69;;;21.63;44.02
75998;BME280;64685;48.762;44.822;2023-06-14T01:04:46;100243.19;;;21.62;44.46
75998;BME280;64685;48.762;44.822;2023-06-14T01:15:35;100231.81;;;21.73;44.33
75998;BME280;64685;48.762;44.822;2023-06-14T01:20:39;100235.47;;;21.77;44.44
75998;BME280;64685;48.762;44.822;2023-06-14T01:25:42;100237.91;;;21.75;44.40
75998;BME280;64685;48.762;44.822;2023-06-14T01:30:49;100228.16;;;21.76;43.96
75998;BME280;64685;48.762;44.822;2023-06-14T01:35:56;100221.22;;;21.84;43.50
75998;BME280;64685;48.762;44.822;2023-06-14T01:40:59;100222.44;;;21.90;43.58
75998;BME280;64685;48.762;44.822;2023-06-14T01:46:05;100230.97;;;21.97;43.38
75998;BME280;64685;48.762;44.822;2023-06-14T01:51:09;100220.75;;;22.06;43.51
75998;BME280;64685;48.762;44.822;2023-06-14T01:56:12;100224.00;;;22.08;43.26
75998;BME280;64685;48.762;44.822;2023-06-14T02:01:15;100239.00;;;22.16;43.45
75998;BME280;64685;48.762;44.822;2023-06-14T02:06:19;100247.13;;;22.10;43.70
75998;BME280;64685;48.762;44.822;2023-06-14T02:11:22;100249.09;;;22.27;42.88
75998;BME280;64685;48.762;44.822;2023-06-14T02:16:25;100252.28;;;22.54;42.42
75998;BME280;64685;48.762;44.822;2023-06-14T02:21:30;100255.75;;;23.44;41.49
75998;BME280;64685;48.762;44.822;2023-06-14T02:26:33;100256.09;;;23.93;40.65
75998;BME280;64685;48.762;44.822;2023-06-14T02:31:36;100263.56;;;24.81;38.27
75998;BME280;64685;48.762;44.822;2023-06-14T02:36:39;100263.34;;;25.48;37.47
75998;BME280;64685;48.762;44.822;2023-06-14T02:41:44;100262.41;;;26.00;36.89
75998;BME280;64685;48.762;44.822;2023-06-14T02:46:46;100261.47;;;26.26;37.82
75998;BME280;64685;48.762;44.822;2023-06-14T02:51:49;100254.59;;;26.98;35.18
75998;BME280;64685;48.762;44.822;2023-06-14T02:56:52;100258.44;;;27.43;35.50
75998;BME280;64685;48.762;44.822;2023-06-14T03:01:55;100252.97;;;27.81;32.99
75998;BME280;64685;48.762;44.822;2023-06-14T03:06:58;100256.16;;;28.43;32.45
75998;BME280;64685;48.762;44.822;2023-06-14T03:12:02;100251.50;;;28.62;32.63
75998;BME280;64685;48.762;44.822;2023-06-14T03:17:06;100255.44;;;28.93;31.45
75998;BME280;64685;48.762;44.822;2023-06-14T03:22:13;100247.31;;;29.54;30.26
75998;BME280;64685;48.762;44.822;2023-06-14T03:27:16;100250.59;;;29.90;29.79
75998;BME280;64685;48.762;44.822;2023-06-14T03:32:21;100247.75;;;29.99;30.39
75998;BME280;64685;48.762;44.822;2023-06-14T03:37:23;100237.19;;;29.12;31.96
75998;BME280;64685;48.762;44.822;2023-06-14T03:42:27;100248.84;;;28.55;31.62
75998;BME280;64685;48.762;44.822;2023-06-14T03:47:30;100248.41;;;28.40;31.77
75998;BME280;64685;48.762;44.822;2023-06-14T03:52:33;100244.22;;;28.29;32.01
75998;BME280;64685;48.762;44.822;2023-06-14T03:57:36;100242.81;;;27.92;32.30
75998;BME280;64685;48.762;44.822;2023-06-14T04:02:44;100237.81;;;28.09;31.92
75998;BME280;64685;48.762;44.822;2023-06-14T04:07:47;100244.53;;;29.38;30.40
75998;BME280;64685;48.762;44.822;2023-06-14T04:12:50;100236.19;;;29.90;30.26
75998;BME280;64685;48.762;44.822;2023-06-14T04:17:54;100231.72;;;29.76;30.85
75998;BME280;64685;48.762;44.822;2023-06-14T04:23:16;100235.41;;;30.11;30.50
75998;BME280;64685;48.762;44.822;2023-06-14T04:28:23;100245.97;;;30.48;28.98
75998;BME280;64685;48.762;44.822;2023-06-14T04:33:30;100237.44;;;30.23;29.32
75998;BME280;64685;48.762;44.822;2023-06-14T04:38:36;100237.66;;;30.50;28.85
75998;BME280;64685;48.762;44.822;2023-06-14T04:43:38;100229.22;;;31.16;28.08
75998;BME280;64685;48.762;44.822;2023-06-14T04:48:42;100229.69;;;31.54;27.45
75998;BME280;64685;48.762;44.822;2023-06-14T04:53:45;100209.28;;;31.40;26.79
75998;BME280;64685;48.762;44.822;2023-06-14T04:58:48;100223.72;;;32.42;25.43
75998;BME280;64685;48.762;44.822;2023-06-14T05:03:51;100226.31;;;34.21;24.33
75998;BME280;64685;48.762;44.822;2023-06-14T05:08:54;100218.78;;;33.67;25.15
75998;BME280;64685;48.762;44.822;2023-06-14T05:13:58;100216.28;;;34.31;24.33
75998;BME280;64685;48.762;44.822;2023-06-14T05:19:03;100220.38;;;34.53;23.00
75998;BME280;64685;48.762;44.822;2023-06-14T05:24:09;100214.56;;;34.39;23.30
75998;BME280;64685;48.762;44.822;2023-06-14T05:29:12;100198.06;;;33.36;24.80
75998;BME280;64685;48.762;44.822;2023-06-14T05:34:16;100211.84;;;33.97;23.59
75998;BME280;64685;48.762;44.822;2023-06-14T05:39:18;100211.41;;;35.24;22.93
75998;BME280;64685;48.762;44.822;2023-06-14T05:44:21;100206.91;;;34.94;23.01
75998;BME280;64685;48.762;44.822;2023-06-14T05:49:23;100204.72;;;35.87;22.04
75998;BME280;64685;48.762;44.822;2023-06-14T05:54:26;100203.28;;;35.62;21.58
75998;BME280;64685;48.762;44.822;2023-06-14T05:59:29;100196.03;;;35.92;21.51
75998;BME280;64685;48.762;44.822;2023-06-14T06:04:31;100190.06;;;37.23;21.01
75998;BME280;64685;48.762;44.822;2023-06-14T06:09:34;100188.69;;;37.97;20.48
75998;BME280;64685;48.762;44.822;2023-06-14T06:14:37;100184.34;;;37.76;20.35
75998;BME280;64685;48.762;44.822;2023-06-14T06:19:39;100184.94;;;37.13;19.39
75998;BME280;64685;48.762;44.822;2023-06-14T06:24:42;100184.94;;;38.83;16.96
75998;BME280;64685;48.762;44.822;2023-06-14T06:29:46;100175.63;;;38.62;16.32
75998;BME280;64685;48.762;44.822;2023-06-14T06:34:50;100176.22;;;37.97;16.49
75998;BME280;64685;48.762;44.822;2023-06-14T06:39:54;100183.72;;;37.25;16.93
75998;BME280;64685;48.762;44.822;2023-06-14T06:44:56;100184.28;;;37.65;16.89
75998;BME280;64685;48.762;44.822;2023-06-14T06:49:59;100184.56;;;38.20;16.63
75998;BME280;64685;48.762;44.822;2023-06-14T06:55:03;100188.53;;;37.70;16.78
75998;BME280;64685;48.762;44.822;2023-06-14T07:00:07;100188.94;;;38.74;16.15
75998;BME280;64685;48.762;44.822;2023-06-14T07:05:11;100169.03;;;39.17;15.75
75998;BME280;64685;48.762;44.822;2023-06-14T07:10:14;100163.50;;;39.30;16.20
75998;BME280;64685;48.762;44.822;2023-06-14T07:15:17;100153.97;;;40.03;15.56
75998;BME280;64685;48.762;44.822;2023-06-14T07:20:20;100149.34;;;39.23;16.47
75998;BME280;64685;48.762;44.822;2023-06-14T07:25:24;100145.78;;;38.03;16.55
75998;BME280;64685;48.762;44.822;2023-06-14T07:30:27;100142.13;;;37.61;16.86
75998;BME280;64685;48.762;44.822;2023-06-14T07:35:32;100149.63;;;39.19;16.19
75998;BME280;64685;48.762;44.822;2023-06-14T07:40:34;100133.06;;;39.66;13.73
75998;BME280;64685;48.762;44.822;2023-06-14T07:45:37;100128.94;;;39.06;13.75
75998;BME280;64685;48.762;44.822;2023-06-14T07:50:44;100130.41;;;39.73;14.19
75998;BME280;64685;48.762;44.822;2023-06-14T07:55:47;100131.34;;;39.30;13.30
75998;BME280;64685;48.762;44.822;2023-06-14T08:00:55;100120.94;;;39.07;14.78
75998;BME280;64685;48.762;44.822;2023-06-14T08:05:58;100137.59;;;38.24;14.70
75998;BME280;64685;48.762;44.822;2023-06-14T08:11:00;100120.44;;;37.31;15.48
75998;BME280;64685;48.762;44.822;2023-06-14T08:16:03;100123.06;;;36.92;16.09
75998;BME280;64685;48.762;44.822;2023-06-14T08:21:07;100119.59;;;36.63;16.74
75998;BME280;64685;48.762;44.822;2023-06-14T08:26:10;100111.75;;;36.69;16.90
75998;BME280;64685;48.762;44.822;2023-06-14T08:31:13;100106.16;;;37.33;16.37
75998;BME280;64685;48.762;44.822;2023-06-14T08:36:15;100105.56;;;37.65;16.93
75998;BME280;64685;48.762;44.822;2023-06-14T08:41:21;100115.13;;;37.71;17.27
75998;BME280;64685;48.762;44.822;2023-06-14T08:46:27;100088.75;;;37.49;17.70
75998;BME280;64685;48.762;44.822;2023-06-14T08:51:32;100094.91;;;38.81;17.21
75998;BME280;64685;48.762;44.822;2023-06-14T08:56:39;100093.06;;;38.73;17.35
75998;BME280;64685;48.762;44.822;2023-06-14T09:01:44;100100.75;;;39.14;18.42
75998;BME280;64685;48.762;44.822;2023-06-14T09:07:07;100097.00;;;39.47;17.47
75998;BME280;64685;48.762;44.822;2023-06-14T09:12:12;100090.00;;;39.61;17.52
75998;BME280;64685;48.762;44.822;2023-06-14T09:17:15;100084.16;;;40.53;16.90
75998;BME280;64685;48.762;44.822;2023-06-14T09:22:18;100085.66;;;39.89;17.92
75998;BME280;64685;48.762;44.822;2023-06-14T09:27:20;100084.66;;;39.70;17.87
75998;BME280;64685;48.762;44.822;2023-06-14T09:32:23;100091.84;;;39.75;17.85
75998;BME280;64685;48.762;44.822;2023-06-14T09:37:30;100085.75;;;39.67;17.90
75998;BME280;64685;48.762;44.822;2023-06-14T09:42:33;100088.78;;;39.34;19.60
75998;BME280;64685;48.762;44.822;2023-06-14T09:47:39;100080.34;;;38.98;19.54
75998;BME280;64685;48.762;44.822;2023-06-14T09:53:06;100086.44;;;38.67;20.64
75998;BME280;64685;48.762;44.822;2023-06-14T09:58:10;100086.38;;;38.12;21.36
75998;BME280;64685;48.762;44.822;2023-06-14T10:03:18;100098.13;;;37.70;21.95
75998;BME280;64685;48.762;44.822;2023-06-14T10:08:25;100086.25;;;37.84;21.60
75998;BME280;64685;48.762;44.822;2023-06-14T10:13:32;100109.53;;;37.26;22.70
75998;BME280;64685;48.762;44.822;2023-06-14T10:23:50;100078.31;;;37.32;23.16
75998;BME280;64685;48.762;44.822;2023-06-14T10:29:09;100083.47;;;37.53;22.79
75998;BME280;64685;48.762;44.822;2023-06-14T10:34:20;100087.19;;;37.54;22.55
75998;BME280;64685;48.762;44.822;2023-06-14T10:39:25;100087.88;;;37.38;22.54
75998;BME280;64685;48.762;44.822;2023-06-14T10:44:39;100088.88;;;36.87;22.79
75998;BME280;64685;48.762;44.822;2023-06-14T10:49:43;100079.94;;;36.96;23.06
75998;BME280;64685;48.762;44.822;2023-06-14T11:00:09;100074.66;;;36.13;24.04
75998;BME280;64685;48.762;44.822;2023-06-14T11:05:24;100074.06;;;36.29;23.69
75998;BME280;64685;48.762;44.822;2023-06-14T11:15:37;100078.88;;;36.12;24.41
75998;BME280;64685;48.762;44.822;2023-06-14T11:20:40;100070.25;;;36.17;24.77
75998;BME280;64685;48.762;44.822;2023-06-14T11:25:42;100076.81;;;36.38;24.60
75998;BME280;64685;48.762;44.822;2023-06-14T11:30:45;100084.91;;;35.83;24.71
75998;BME280;64685;48.762;44.822;2023-06-14T11:35:48;100085.75;;;35.69;25.66
75998;BME280;64685;48.762;44.822;2023-06-14T11:40:51;100097.91;;;35.47;25.75
75998;BME280;64685;48.762;44.822;2023-06-14T11:45:54;100097.91;;;35.47;26.44
75998;BME280;64685;48.762;44.822;2023-06-14T11:51:09;100102.78;;;35.21;27.14
75998;BME280;64685;48.762;44.822;2023-06-14T11:56:12;100106.31;;;34.62;27.73
75998;BME280;64685;48.762;44.822;2023-06-14T12:01:18;100106.94;;;34.37;28.81
75998;BME280;64685;48.762;44.822;2023-06-14T12:06:29;100115.59;;;34.08;29.64
75998;BME280;64685;48.762;44.822;2023-06-14T12:11:35;100124.56;;;33.72;30.17
75998;BME280;64685;48.762;44.822;2023-06-14T12:16:39;100137.94;;;33.31;31.00
75998;BME280;64685;48.762;44.822;2023-06-14T12:21:46;100133.84;;;32.64;33.07
75998;BME280;64685;48.762;44.822;2023-06-14T12:26:51;100157.66;;;31.42;36.73
75998;BME280;64685;48.762;44.822;2023-06-14T12:31:55;100147.25;;;30.65;37.70
75998;BME280;64685;48.762;44.822;2023-06-14T12:36:59;100156.09;;;30.71;36.86
75998;BME280;64685;48.762;44.822;2023-06-14T12:42:01;100157.63;;;30.84;36.76
75998;BME280;64685;48.762;44.822;2023-06-14T12:47:07;100156.19;;;30.89;36.61
75998;BME280;64685;48.762;44.822;2023-06-14T12:52:10;100146.66;;;31.10;36.08
75998;BME280;64685;48.762;44.822;2023-06-14T12:57:12;100167.25;;;31.30;35.90
75998;BME280;64685;48.762;44.822;2023-06-14T13:02:15;100162.44;;;31.36;35.19
75998;BME280;64685;48.762;44.822;2023-06-14T13:07:18;100162.31;;;31.39;34.71
75998;BME280;64685;48.762;44.822;2023-06-14T13:12:21;100158.63;;;31.57;33.93
75998;BME280;64685;48.762;44.822;2023-06-14T13:17:24;100150.00;;;31.66;33.35
75998;BME280;64685;48.762;44.822;2023-06-14T13:22:26;100151.59;;;31.67;32.92
75998;BME280;64685;48.762;44.822;2023-06-14T13:27:29;100138.59;;;31.62;32.82
75998;BME280;64685;48.762;44.822;2023-06-14T13:32:31;100143.72;;;31.58;33.11
75998;BME280;64685;48.762;44.822;2023-06-14T13:37:34;100120.78;;;31.55;33.46
75998;BME280;64685;48.762;44.822;2023-06-14T13:42:37;100117.56;;;31.53;33.57
75998;BME280;64685;48.762;44.822;2023-06-14T13:47:39;100107.28;;;31.52;33.72
75998;BME280;64685;48.762;44.822;2023-06-14T13:52:42;100103.13;;;31.53;33.70
75998;BME280;64685;48.762;44.822;2023-06-14T13:57:44;100089.78;;;31.37;33.30
75998;BME280;64685;48.762;44.822;2023-06-14T14:02:47;100094.47;;;31.44;33.67
75998;BME280;64685;48.762;44.822;2023-06-14T14:07:53;100074.56;;;31.46;33.41
75998;BME280;64685;48.762;44.822;2023-06-14T14:12:55;100065.09;;;31.54;33.80
75998;BME280;64685;48.762;44.822;2023-06-14T14:17:58;100064.47;;;31.50;34.05
75998;BME280;64685;48.762;44.822;2023-06-14T14:23:01;100073.63;;;31.49;33.85
75998;BME280;64685;48.762;44.822;2023-06-14T14:28:04;100072.16;;;31.35;34.13
75998;BME280;64685;48.762;44.822;2023-06-14T14:33:06;100075.69;;;31.39;33.76
75998;BME280;64685;48.762;44.822;2023-06-14T14:38:09;100062.56;;;31.56;33.51
75998;BME280;64685;48.762;44.822;2023-06-14T14:43:11;100068.00;;;31.54;34.25
75998;BME280;64685;48.762;44.822;2023-06-14T14:48:14;100080.16;;;31.31;35.22
75998;BME280;64685;48.762;44.822;2023-06-14T14:53:17;100094.47;;;30.86;36.85
75998;BME280;64685;48.762;44.822;2023-06-14T14:58:19;100088.53;;;30.81;37.24
75998;BME280;64685;48.762;44.822;2023-06-14T15:03:23;100075.97;;;30.66;38.17
75998;BME280;64685;48.762;44.822;2023-06-14T15:08:25;100075.25;;;30.53;38.41
75998;BME280;64685;48.762;44.822;2023-06-14T15:13:28;100076.03;;;30.53;38.57
75998;BME280;64685;48.762;44.822;2023-06-14T15:18:30;100082.16;;;30.55;38.43
75998;BME280;64685;48.762;44.822;2023-06-14T15:23:33;100076.84;;;30.54;38.60
75998;BME280;64685;48.762;44.822;2023-06-14T15:28:35;100071.56;;;30.52;38.95
75998;BME280;64685;48.762;44.822;2023-06-14T15:33:38;100078.28;;;30.49;38.40
75998;BME280;64685;48.762;44.822;2023-06-14T15:38:41;100081.63;;;30.48;38.42
75998;BME280;64685;48.762;44.822;2023-06-14T15:43:45;100071.72;;;30.49;38.42
75998;BME280;64685;48.762;44.822;2023-06-14T15:48:47;100076.94;;;30.41;38.33
75998;BME280;64685;48.762;44.822;2023-06-14T15:53:50;100084.47;;;30.39;38.40
75998;BME280;64685;48.762;44.822;2023-06-14T15:58:55;100097.28;;;30.38;38.75
75998;BME280;64685;48.762;44.822;2023-06-14T16:03:58;100095.00;;;30.33;39.08
75998;BME280;64685;48.762;44.822;2023-06-14T16:09:00;100102.59;;;30.18;39.09
75998;BME280;64685;48.762;44.822;2023-06-14T16:14:05;100106.69;;;30.08;39.56
75998;BME280;64685;48.762;44.822;2023-06-14T16:19:07;100110.78;;;29.98;39.80
75998;BME280;64685;48.762;44.822;2023-06-14T16:24:10;100115.66;;;29.88;39.92
75998;BME280;64685;48.762;44.822;2023-06-14T16:29:13;100119.88;;;29.75;40.61
75998;BME280;64685;48.762;44.822;2023-06-14T16:34:16;100123.63;;;29.63;40.73
75998;BME280;64685;48.762;44.822;2023-06-14T16:39:18;100116.13;;;29.53;41.30
75998;BME280;64685;48.762;44.822;2023-06-14T16:44:21;100123.44;;;29.45;41.60
75998;BME280;64685;48.762;44.822;2023-06-14T16:49:24;100130.25;;;29.26;41.92
75998;BME280;64685;48.762;44.822;2023-06-14T16:54:26;100135.94;;;29.04;42.37
75998;BME280;64685;48.762;44.822;2023-06-14T16:59:29;100141.91;;;28.85;43.60
75998;BME280;64685;48.762;44.822;2023-06-14T17:04:33;100144.91;;;28.69;43.64
75998;BME280;64685;48.762;44.822;2023-06-14T17:09:35;100148.09;;;28.46;44.18
75998;BME280;64685;48.762;44.822;2023-06-14T17:14:38;100158.38;;;28.31;44.43
75998;BME280;64685;48.762;44.822;2023-06-14T17:19:41;100158.56;;;28.11;44.90
75998;BME280;64685;48.762;44.822;2023-06-14T17:24:43;100163.69;;;27.91;46.94
75998;BME280;64685;48.762;44.822;2023-06-14T17:29:46;100167.00;;;27.74;47.85
75998;BME280;64685;48.762;44.822;2023-06-14T17:34:49;100187.03;;;27.61;48.25
75998;BME280;64685;48.762;44.822;2023-06-14T17:39:51;100191.72;;;27.55;48.83
75998;BME280;64685;48.762;44.822;2023-06-14T17:44:54;100208.22;;;27.51;49.02
75998;BME280;64685;48.762;44.822;2023-06-14T17:49:58;100203.91;;;27.43;49.59
75998;BME280;64685;48.762;44.822;2023-06-14T17:55:03;100204.00;;;27.40;49.65
75998;BME280;64685;48.762;44.822;2023-06-14T18:00:06;100209.66;;;27.43;49.31
75998;BME280;64685;48.762;44.822;2023-06-14T18:05:15;100208.16;;;27.39;49.60
75998;BME280;64685;48.762;44.822;2023-06-14T18:10:17;100216.47;;;27.33;50.01
75998;BME280;64685;48.762;44.822;2023-06-14T18:15:21;100208.44;;;27.28;50.02
75998;BME280;64685;48.762;44.822;2023-06-14T18:20:23;100215.94;;;27.22;50.01
75998;BME280;64685;48.762;44.822;2023-06-14T18:25:26;100206.25;;;27.16;50.33
75998;BME280;64685;48.762;44.822;2023-06-14T18:30:29;100209.56;;;27.15;50.47
75998;BME280;64685;48.762;44.822;2023-06-14T18:35:31;100217.00;;;27.12;50.51
75998;BME280;64685;48.762;44.822;2023-06-14T18:40:35;100211.50;;;27.02;50.46
75998;BME280;64685;48.762;44.822;2023-06-14T18:45:39;100206.66;;;26.99;50.48
75998;BME280;64685;48.762;44.822;2023-06-14T18:50:42;100203.81;;;26.99;50.59
75998;BME280;64685;48.762;44.822;2023-06-14T18:55:45;100201.47;;;26.94;50.73
75998;BME280;64685;48.762;44.822;2023-06-14T19:00:49;100201.25;;;26.85;51.12
75998;BME280;64685;48.762;44.822;2023-06-14T19:05:52;100199.66;;;26.84;51.38
75998;BME280;64685;48.762;44.822;2023-06-14T19:10:57;100194.81;;;26.81;51.35
75998;BME280;64685;48.762;44.822;2023-06-14T19:16:00;100190.06;;;26.74;51.58
75998;BME280;64685;48.762;44.822;2023-06-14T19:21:03;100181.47;;;26.74;51.61
75998;BME280;64685;48.762;44.822;2023-06-14T19:26:05;100167.22;;;26.71;51.91
75998;BME280;64685;48.762;44.822;2023-06-14T19:31:08;100165.63;;;26.70;51.85
75998;BME280;64685;48.762;44.822;2023-06-14T19:36:13;100166.13;;;26.65;52.27
75998;BME280;64685;48.762;44.822;2023-06-14T19:41:18;100168.56;;;26.47;52.65
75998;BME280;64685;48.762;44.822;2023-06-14T19:46:22;100176.22;;;26.34;52.61
75998;BME280;64685;48.762;44.822;2023-06-14T19:51:25;100159.44;;;26.16;53.20
75998;BME280;64685;48.762;44.822;2023-06-14T19:56:28;100165.88;;;26.01;53.56
75998;BME280;64685;48.762;44.822;2023-06-14T20:01:30;100176.78;;;25.86;54.69
75998;BME280;64685;48.762;44.822;2023-06-14T20:06:33;100183.38;;;25.64;55.71
75998;BME280;64685;48.762;44.822;2023-06-14T20:11:35;100197.44;;;25.55;56.63
75998;BME280;64685;48.762;44.822;2023-06-14T20:16:38;100193.09;;;25.47;57.51
75998;BME280;64685;48.762;44.822;2023-06-14T20:21:41;100193.88;;;25.47;57.81
75998;BME280;64685;48.762;44.822;2023-06-14T20:26:43;100195.97;;;25.47;58.35
75998;BME280;64685;48.762;44.822;2023-06-14T20:31:47;100192.28;;;25.46;59.37
75998;BME280;64685;48.762;44.822;2023-06-14T20:36:50;100206.22;;;25.44;59.43
75998;BME280;64685;48.762;44.822;2023-06-14T20:41:54;100211.53;;;25.42;59.66
75998;BME280;64685;48.762;44.822;2023-06-14T20:46:59;100219.47;;;25.35;60.19
75998;BME280;64685;48.762;44.822;2023-06-14T20:52:01;100221.06;;;25.36;60.71
75998;BME280;64685;48.762;44.822;2023-06-14T20:57:09;100232.09;;;25.37;61.28
75998;BME280;64685;48.762;44.822;2023-06-14T21:02:15;100216.09;;;25.40;61.28
75998;BME280;64685;48.762;44.822;2023-06-14T21:07:19;100234.06;;;25.40;61.13
75998;BME280;64685;48.762;44.822;2023-06-14T21:12:22;100221.00;;;25.39;61.43
75998;BME280;64685;48.762;44.822;2023-06-14T21:17:26;100218.22;;;25.36;61.73
75998;BME280;64685;48.762;44.822;2023-06-14T21:22:29;100217.47;;;25.32;61.50
75998;BME280;64685;48.762;44.822;2023-06-14T21:27:32;100207.28;;;25.31;61.21
75998;BME280;64685;48.762;44.822;2023-06-14T21:32:34;100214.97;;;25.34;60.90
75998;BME280;64685;48.762;44.822;2023-06-14T21:37:37;100205.97;;;25.35;60.45
75998;BME280;64685;48.762;44.822;2023-06-14T21:42:40;100214.94;;;25.37;59.91
75998;BME280;64685;48.762;44.822;2023-06-14T21:47:42;100220.19;;;25.39;59.45
75998;BME280;64685;48.762;44.822;2023-06-14T21:52:45;100218.56;;;25.38;59.58
75998;BME280;64685;48.762;44.822;2023-06-14T21:57:48;100218.34;;;25.29;58.83
75998;BME280;64685;48.762;44.822;2023-06-14T22:02:51;100229.84;;;25.22;58.83
75998;BME280;64685;48.762;44.822;2023-06-14T22:07:53;100235.03;;;25.04;59.04
75998;BME280;64685;48.762;44.822;2023-06-14T22:12:56;100239.09;;;24.80;60.80
75998;BME280;64685;48.762;44.822;2023-06-14T22:18:01;100231.66;;;24.59;62.11
75998;BME280;64685;48.762;44.822;2023-06-14T22:23:04;100236.72;;;24.45;62.62
75998;BME280;64685;48.762;44.822;2023-06-14T22:28:07;100238.50;;;24.32;62.73
75998;BME280;64685;48.762;44.822;2023-06-14T22:33:11;100238.78;;;24.07;63.16
75998;BME280;64685;48.762;44.822;2023-06-14T22:38:13;100244.69;;;23.93;63.71
75998;BME280;64685;48.762;44.822;2023-06-14T22:43:21;100243.56;;;23.80;64.75
75998;BME280;64685;48.762;44.822;2023-06-14T22:48:23;100235.16;;;23.66;64.84
75998;BME280;64685;48.762;44.822;2023-06-14T22:53:26;100232.00;;;23.54;65.40
75998;BME280;64685;48.762;44.822;2023-06-14T22:58:31;100235.34;;;23.49;65.34
75998;BME280;64685;48.762;44.822;2023-06-14T23:03:35;100230.59;;;23.32;65.82
75998;BME280;64685;48.762;44.822;2023-06-14T23:08:39;100233.53;;;23.21;66.17
75998;BME280;64685;48.762;44.822;2023-06-14T23:13:48;100231.53;;;23.15;66.19
75998;BME280;64685;48.762;44.822;2023-06-14T23:18:52;100220.94;;;23.15;66.32
75998;BME280;64685;48.762;44.822;2023-06-14T23:23:55;100213.63;;;23.14;66.89
75998;BME280;64685;48.762;44.822;2023-06-14T23:28:58;100212.84;;;23.07;66.64
75998;BME280;64685;48.762;44.822;2023-06-14T23:34:00;100225.03;;;23.11;66.38
75998;BME280;64685;48.762;44.822;2023-06-14T23:39:03;100211.63;;;23.08;66.78
75998;BME280;64685;48.762;44.822;2023-06-14T23:44:06;100205.09;;;23.11;66.71
75998;BME280;64685;48.762;44.822;2023-06-14T23:49:09;100202.63;;;23.13;66.37
75998;BME280;64685;48.762;44.822;2023-06-14T23:54:11;100196.56;;;23.11;66.05
75998;BME280;64685;48.762;44.822;2023-06-14T23:59:14;100195.72;;;23.10;66.07
